createdAt,value
2018-07-31T00:00:31.002Z,101500.11
2018-07-31T00:03:00.095Z,101502.23
2018-07-31T00:05:29.153Z,101499.45
2018-07-31T00:07:58.229Z,101501.37
2018-07-31T00:10:27.379Z,101499.75
2018-07-31T00:12:56.630Z,101492.97
2018-07-31T00:15:25.744Z,101496.05
2018-07-31T00:17:54.807Z,101497.85
2018-07-31T00:20:23.916Z,101499.44
2018-07-31T00:22:52.999Z,101498.55
2018-07-31T00:25:22.131Z,101501.33
2018-07-31T00:27:51.201Z,101500.17
2018-07-31T00:30:20.263Z,101491.17
2018-07-31T00:32:49.327Z,101493.02
2018-07-31T00:35:18.459Z,101495.47
2018-07-31T00:37:47.619Z,101490.80
2018-07-31T00:40:16.787Z,101494.20
2018-07-31T00:42:45.839Z,101490.14
2018-07-31T00:45:14.927Z,101492.26
2018-07-31T00:47:44.010Z,101494.80
2018-07-31T00:50:13.067Z,101499.17
2018-07-31T00:52:42.261Z,101491.94
2018-07-31T00:55:11.315Z,101492.43
2018-07-31T00:57:40.385Z,101487.23
2018-07-31T01:00:09.668Z,101487.97
2018-07-31T01:02:38.738Z,101495.14
2018-07-31T01:05:07.943Z,101495.91
2018-07-31T01:07:37.009Z,101497.27
2018-07-31T01:10:06.125Z,101499.84
2018-07-31T01:12:35.183Z,101495.41
2018-07-31T01:15:04.464Z,101494.28
2018-07-31T01:17:33.632Z,101500.93
2018-07-31T01:20:03.039Z,101499.08
2018-07-31T01:22:32.197Z,101501.42
2018-07-31T01:25:01.331Z,101495.02
2018-07-31T01:27:30.401Z,101503.14
2018-07-31T01:29:59.527Z,101497.72
2018-07-31T01:32:28.575Z,101489.28
2018-07-31T01:34:57.547Z,101491.50
2018-07-31T01:37:26.651Z,101484.67
2018-07-31T01:39:55.955Z,101484.36
2018-07-31T01:42:25.032Z,101482.69
2018-07-31T01:44:54.095Z,101484.18
2018-07-31T01:47:23.183Z,101482.13
2018-07-31T01:49:52.235Z,101490.91
2018-07-31T01:52:21.323Z,101497.68
2018-07-31T01:54:50.443Z,101499.17
2018-07-31T01:57:19.503Z,101499.27
2018-07-31T01:59:48.572Z,101490.36
2018-07-31T02:02:17.663Z,101482.23
2018-07-31T02:04:50.245Z,101492.48
2018-07-31T02:07:19.323Z,101490.14
2018-07-31T02:09:48.381Z,101488.69
2018-07-31T02:12:17.425Z,101488.91
2018-07-31T02:14:46.485Z,101487.06
2018-07-31T02:17:15.627Z,101481.24
2018-07-31T02:19:44.911Z,101473.23
2018-07-31T02:22:13.973Z,101481.24
2018-07-31T02:24:48.652Z,101477.80
2018-07-31T02:27:17.714Z,101483.95
2018-07-31T02:29:52.151Z,101481.37
2018-07-31T02:32:21.248Z,101479.62
2018-07-31T02:34:50.312Z,101475.45
2018-07-31T02:37:19.372Z,101475.55
2018-07-31T02:39:48.420Z,101478.76
2018-07-31T02:42:17.491Z,101471.48
2018-07-31T02:44:46.555Z,101464.25
2018-07-31T02:47:15.796Z,101465.92
2018-07-31T02:49:44.872Z,101468.23
2018-07-31T02:52:13.956Z,101465.06
2018-07-31T02:54:43.039Z,101470.36
2018-07-31T02:57:12.216Z,101466.52
2018-07-31T02:59:41.319Z,101459.84
2018-07-31T03:02:10.377Z,101458.61
2018-07-31T03:04:39.440Z,101459.64
2018-07-31T03:07:08.501Z,101450.42
2018-07-31T03:09:37.571Z,101440.54
2018-07-31T03:12:06.643Z,101441.40
2018-07-31T03:14:35.752Z,101442.89
2018-07-31T03:17:04.828Z,101441.40
2018-07-31T03:19:33.889Z,101449.16
2018-07-31T03:22:02.971Z,101451.78
2018-07-31T03:24:32.016Z,101454.09
2018-07-31T03:27:01.068Z,101452.73
2018-07-31T03:29:30.132Z,101457.30
2018-07-31T03:31:59.182Z,101462.72
2018-07-31T03:34:28.512Z,101460.37
2018-07-31T03:36:58.229Z,101468.14
2018-07-31T03:39:27.285Z,101461.69
2018-07-31T03:41:56.387Z,101462.45
2018-07-31T03:44:25.533Z,101458.21
2018-07-31T03:46:54.615Z,101458.88
2018-07-31T03:49:23.739Z,101459.38
2018-07-31T03:51:58.659Z,101449.76
2018-07-31T03:54:27.991Z,101450.84
2018-07-31T03:56:57.009Z,101450.25
2018-07-31T03:59:26.083Z,101442.98
2018-07-31T04:01:55.143Z,101451.02
2018-07-31T04:04:24.259Z,101442.98
2018-07-31T04:06:53.362Z,101432.27
2018-07-31T04:09:22.553Z,101435.94
2018-07-31T04:11:51.631Z,101434.48
2018-07-31T04:14:20.747Z,101431.88
2018-07-31T04:16:50.015Z,101423.20
2018-07-31T04:19:19.251Z,101421.98
2018-07-31T04:21:48.365Z,101419.53
2018-07-31T04:24:17.491Z,101413.63
2018-07-31T04:26:46.531Z,101413.63
2018-07-31T04:29:15.594Z,101412.09
2018-07-31T04:31:44.667Z,101415.66
2018-07-31T04:34:13.744Z,101408.89
2018-07-31T04:36:42.880Z,101406.45
2018-07-31T04:39:13.475Z,101400.66
2018-07-31T04:41:42.805Z,101404.95
2018-07-31T04:44:11.911Z,101406.41
2018-07-31T04:46:40.979Z,101401.48
2018-07-31T04:49:10.123Z,101409.38
2018-07-31T04:51:39.215Z,101400.39
2018-07-31T04:54:08.262Z,101400.11
2018-07-31T04:56:37.358Z,101395.39
2018-07-31T04:59:06.667Z,101392.22
2018-07-31T05:01:35.806Z,101400.38
2018-07-31T05:04:04.943Z,101406.83
2018-07-31T05:06:34.607Z,101407.03
2018-07-31T05:09:03.991Z,101412.22
2018-07-31T05:11:33.040Z,101414.56
2018-07-31T05:14:02.087Z,101398.83
2018-07-31T05:16:31.132Z,101391.05
2018-07-31T05:19:00.264Z,101395.02
2018-07-31T05:21:29.539Z,101390.55
2018-07-31T05:23:58.600Z,101385.03
2018-07-31T05:26:27.687Z,101376.03
2018-07-31T05:28:56.757Z,101381.22
2018-07-31T05:31:25.874Z,101377.78
2018-07-31T05:33:55.062Z,101365.11
2018-07-31T05:36:24.186Z,101367.69
2018-07-31T05:38:53.252Z,101358.09
2018-07-31T05:41:22.356Z,101357.98
2018-07-31T05:43:51.646Z,101359.61
2018-07-31T05:46:20.732Z,101364.89
2018-07-31T05:48:49.836Z,101379.31
2018-07-31T05:51:18.936Z,101372.17
2018-07-31T05:53:48.012Z,101366.52
2018-07-31T05:56:17.254Z,101363.80
2018-07-31T05:58:46.302Z,101370.58
2018-07-31T06:01:15.434Z,101374.55
2018-07-31T06:03:44.532Z,101375.30
2018-07-31T06:06:13.594Z,101385.06
2018-07-31T06:08:42.708Z,101386.78
2018-07-31T06:11:11.757Z,101395.67
2018-07-31T06:13:40.889Z,101389.25
2018-07-31T06:16:09.930Z,101393.72
2018-07-31T06:18:38.982Z,101393.98
2018-07-31T06:21:08.028Z,101400.37
2018-07-31T06:23:37.112Z,101401.12
2018-07-31T06:26:06.274Z,101401.02
2018-07-31T06:28:35.420Z,101392.63
2018-07-31T06:31:04.566Z,101390.77
2018-07-31T06:33:33.663Z,101379.41
2018-07-31T06:36:02.763Z,101376.20
2018-07-31T06:38:31.866Z,101369.42
2018-07-31T06:41:00.976Z,101358.56
2018-07-31T06:43:30.120Z,101355.73
2018-07-31T06:45:59.454Z,101352.13
2018-07-31T06:48:28.520Z,101349.80
2018-07-31T06:50:57.614Z,101353.63
2018-07-31T06:53:26.774Z,101355.25
2018-07-31T06:55:55.964Z,101370.07
2018-07-31T06:58:25.021Z,101381.42
2018-07-31T07:00:54.540Z,101401.53
2018-07-31T07:03:23.602Z,101419.04
2018-07-31T07:05:52.886Z,101403.26
2018-07-31T07:08:21.976Z,101418.44
2018-07-31T07:10:51.071Z,101422.02
2018-07-31T07:13:20.293Z,101409.34
2018-07-31T07:15:50.227Z,101413.41
2018-07-31T07:18:19.346Z,101407.34
2018-07-31T07:20:48.443Z,101413.46
2018-07-31T07:23:17.542Z,101407.55
2018-07-31T07:25:46.622Z,101405.84
2018-07-31T07:28:15.880Z,101412.28
2018-07-31T07:30:45.069Z,101424.16
2018-07-31T07:33:14.180Z,101415.52
2018-07-31T07:35:43.316Z,101405.41
2018-07-31T07:38:12.362Z,101412.09
2018-07-31T07:40:41.429Z,101415.53
2018-07-31T07:43:10.752Z,101424.08
2018-07-31T07:45:39.932Z,101429.51
2018-07-31T07:48:09.022Z,101425.33
2018-07-31T07:50:38.287Z,101438.41
2018-07-31T07:53:07.548Z,101429.31
2018-07-31T07:55:36.796Z,101433.75
2018-07-31T07:58:06.386Z,101444.52
2018-07-31T08:00:35.746Z,101445.63
2018-07-31T08:03:05.191Z,101445.78
2018-07-31T08:05:34.518Z,101444.95
2018-07-31T08:08:05.524Z,101437.67
2018-07-31T08:10:34.836Z,101438.92
2018-07-31T08:13:03.998Z,101431.91
2018-07-31T08:15:33.123Z,101433.87
2018-07-31T08:18:02.247Z,101433.52
2018-07-31T08:20:31.367Z,101432.91
2018-07-31T08:23:00.526Z,101434.77
2018-07-31T08:25:29.932Z,101435.77
2018-07-31T08:27:59.398Z,101440.55
2018-07-31T08:30:28.548Z,101441.45
2018-07-31T08:32:57.604Z,101442.91
2018-07-31T08:35:27.310Z,101441.30
2018-07-31T08:37:56.704Z,101449.10
2018-07-31T08:40:25.874Z,101453.54
2018-07-31T08:42:55.059Z,101449.83
2018-07-31T08:45:24.508Z,101463.78
2018-07-31T08:47:53.572Z,101462.02
2018-07-31T08:50:22.622Z,101466.13
2018-07-31T08:52:51.896Z,101472.43
2018-07-31T08:55:21.007Z,101469.92
2018-07-31T08:57:50.140Z,101481.84
2018-07-31T09:00:19.452Z,101481.34
2018-07-31T09:02:48.603Z,101479.62
2018-07-31T09:05:17.835Z,101487.88
2018-07-31T09:07:46.888Z,101490.21
2018-07-31T09:10:15.959Z,101502.79
2018-07-31T09:12:45.096Z,101510.83
2018-07-31T09:15:14.207Z,101514.80
2018-07-31T09:17:43.263Z,101517.61
2018-07-31T09:20:12.332Z,101532.20
2018-07-31T09:22:41.442Z,101537.58
2018-07-31T09:25:10.567Z,101539.26
2018-07-31T09:27:39.682Z,101536.11
2018-07-31T09:30:08.798Z,101545.66
2018-07-31T09:32:43.328Z,101551.69
2018-07-31T09:35:12.411Z,101562.66
2018-07-31T09:37:41.526Z,101563.92
2018-07-31T09:40:10.708Z,101568.47
2018-07-31T09:42:39.999Z,101578.13
2018-07-31T09:45:09.303Z,101581.44
2018-07-31T09:47:38.395Z,101591.20
2018-07-31T09:50:07.500Z,101591.19
2018-07-31T09:52:36.703Z,101601.84
2018-07-31T09:55:05.886Z,101610.84
2018-07-31T09:57:34.963Z,101615.95
2018-07-31T10:00:05.125Z,101624.13
2018-07-31T10:02:34.280Z,101619.64
2018-07-31T10:05:03.417Z,101637.45
2018-07-31T10:07:32.699Z,101650.00
2018-07-31T10:10:01.816Z,101654.59
2018-07-31T10:12:31.299Z,101661.02
2018-07-31T10:15:00.388Z,101657.97
2018-07-31T10:17:29.460Z,101670.84
2018-07-31T10:19:58.498Z,101684.94
2018-07-31T10:22:27.675Z,101678.22
2018-07-31T10:24:56.799Z,101682.52
2018-07-31T10:27:26.161Z,101691.69
2018-07-31T10:29:55.226Z,101696.33
2018-07-31T10:32:24.343Z,101692.59
2018-07-31T10:34:53.466Z,101702.94
2018-07-31T10:37:22.691Z,101710.89
2018-07-31T10:39:51.878Z,101708.75
2018-07-31T10:42:21.081Z,101704.90
2018-07-31T10:44:50.132Z,101710.27
2018-07-31T10:47:19.192Z,101709.41
2018-07-31T10:49:48.261Z,101712.88
2018-07-31T10:52:17.447Z,101703.59
2018-07-31T10:54:46.564Z,101719.64
2018-07-31T10:57:15.626Z,101716.77
2018-07-31T10:59:44.822Z,101710.48
2018-07-31T11:02:14.037Z,101717.70
2018-07-31T11:04:43.121Z,101710.80
2018-07-31T11:07:12.247Z,101711.09
2018-07-31T11:09:41.343Z,101719.41
2018-07-31T11:12:10.435Z,101719.39
2018-07-31T11:14:39.517Z,101722.55
2018-07-31T11:17:08.591Z,101731.12
2018-07-31T11:19:37.655Z,101725.36
2018-07-31T11:22:06.818Z,101741.01
2018-07-31T11:24:35.879Z,101741.06
2018-07-31T11:27:05.066Z,101741.78
2018-07-31T11:29:34.135Z,101740.59
2018-07-31T11:32:03.291Z,101732.00
2018-07-31T11:34:32.425Z,101732.66
2018-07-31T11:37:01.601Z,101741.80
2018-07-31T11:39:30.793Z,101744.09
2018-07-31T11:41:59.871Z,101734.59
2018-07-31T11:44:28.968Z,101749.52
2018-07-31T11:46:58.172Z,101745.53
2018-07-31T11:49:27.369Z,101745.64
2018-07-31T11:51:56.439Z,101746.08
2018-07-31T11:54:25.546Z,101744.86
2018-07-31T11:56:54.752Z,101742.23
2018-07-31T11:59:23.891Z,101740.33
2018-07-31T12:01:53.112Z,101745.87
2018-07-31T12:04:22.344Z,101738.34
2018-07-31T12:06:51.549Z,101746.44
2018-07-31T12:09:20.638Z,101747.58
2018-07-31T12:11:49.683Z,101747.63
2018-07-31T12:14:18.751Z,101743.47
2018-07-31T12:16:47.837Z,101745.19
2018-07-31T12:19:17.257Z,101746.19
2018-07-31T12:21:46.291Z,101750.51
2018-07-31T12:24:15.480Z,101756.69
2018-07-31T12:26:44.574Z,101754.45
2018-07-31T12:29:13.838Z,101752.28
2018-07-31T12:31:42.889Z,101753.72
2018-07-31T12:34:12.221Z,101760.59
2018-07-31T12:36:41.547Z,101776.66
2018-07-31T12:39:12.439Z,101770.28
2018-07-31T12:41:41.718Z,101767.28
2018-07-31T12:44:11.048Z,101764.00
2018-07-31T12:46:40.468Z,101770.95
2018-07-31T12:49:09.767Z,101777.72
2018-07-31T12:51:39.068Z,101784.78
2018-07-31T12:54:08.319Z,101782.45
2018-07-31T12:56:37.511Z,101799.28
2018-07-31T12:59:06.817Z,101794.06
2018-07-31T13:01:35.931Z,101791.44
2018-07-31T13:04:05.139Z,101789.74
2018-07-31T13:06:34.593Z,101788.07
2018-07-31T13:09:04.951Z,101790.86
2018-07-31T13:11:34.177Z,101784.58
2018-07-31T13:14:03.449Z,101793.86
2018-07-31T13:16:32.756Z,101789.80
2018-07-31T13:19:02.274Z,101803.63
2018-07-31T13:21:31.841Z,101801.44
2018-07-31T13:24:01.266Z,101804.70
2018-07-31T13:26:30.587Z,101811.00
2018-07-31T13:28:59.812Z,101816.70
2018-07-31T13:31:29.190Z,101811.00
2018-07-31T13:33:58.413Z,101815.44
2018-07-31T13:36:27.759Z,101817.36
2018-07-31T13:38:56.849Z,101810.14
2018-07-31T13:41:26.067Z,101818.91
2018-07-31T13:43:55.519Z,101820.68
2018-07-31T13:46:24.765Z,101820.78
2018-07-31T13:48:54.219Z,101823.56
2018-07-31T13:51:23.413Z,101816.99
2018-07-31T13:53:52.761Z,101822.81
2018-07-31T13:56:22.019Z,101829.77
2018-07-31T13:58:51.307Z,101831.73
2018-07-31T14:01:20.601Z,101827.27
2018-07-31T14:03:49.801Z,101826.36
2018-07-31T14:06:19.217Z,101825.78
2018-07-31T14:08:48.372Z,101829.68
2018-07-31T14:11:17.499Z,101822.12
2018-07-31T14:13:46.808Z,101817.00
2018-07-31T14:16:16.311Z,101811.12
2018-07-31T14:18:46.798Z,101816.14
2018-07-31T14:21:16.080Z,101813.05
2018-07-31T14:23:45.384Z,101826.48
2018-07-31T14:26:14.692Z,101816.34
2018-07-31T14:28:43.948Z,101823.95
2018-07-31T14:31:13.240Z,101821.93
2018-07-31T14:33:42.540Z,101820.77
2018-07-31T14:36:11.862Z,101833.05
2018-07-31T14:38:41.103Z,101829.95
2018-07-31T14:41:10.239Z,101826.27
2018-07-31T14:43:39.536Z,101814.78
2018-07-31T14:46:08.663Z,101834.20
2018-07-31T14:48:37.896Z,101834.98
2018-07-31T14:51:07.254Z,101829.47
2018-07-31T14:53:36.394Z,101828.22
2018-07-31T14:56:05.678Z,101834.70
2018-07-31T14:58:34.856Z,101835.65
2018-07-31T15:01:04.053Z,101839.73
2018-07-31T15:03:33.136Z,101839.82
2018-07-31T15:06:02.236Z,101833.05
2018-07-31T15:08:31.414Z,101835.45
2018-07-31T15:11:00.547Z,101831.78
2018-07-31T15:13:29.896Z,101831.35
2018-07-31T15:15:59.133Z,101833.43
2018-07-31T15:18:28.310Z,101824.50
2018-07-31T15:20:57.392Z,101844.52
2018-07-31T15:23:26.478Z,101837.21
2018-07-31T15:25:55.731Z,101843.56
2018-07-31T15:28:24.858Z,101842.14
2018-07-31T15:30:54.075Z,101838.45
2018-07-31T15:33:23.336Z,101845.12
2018-07-31T15:35:52.401Z,101843.77
2018-07-31T15:38:21.504Z,101854.30
2018-07-31T15:40:50.633Z,101842.52
2018-07-31T15:43:19.852Z,101839.52
2018-07-31T15:45:48.980Z,101849.38
2018-07-31T15:48:18.368Z,101832.55
2018-07-31T15:50:47.651Z,101846.22
2018-07-31T15:53:16.695Z,101857.41
2018-07-31T15:55:45.747Z,101855.78
2018-07-31T15:58:14.799Z,101857.34
2018-07-31T16:00:43.868Z,101855.70
2018-07-31T16:03:13.007Z,101856.48
2018-07-31T16:05:42.118Z,101852.02
2018-07-31T16:08:11.495Z,101860.72
2018-07-31T16:10:40.584Z,101856.19
2018-07-31T16:13:09.722Z,101858.49
2018-07-31T16:15:38.853Z,101861.66
2018-07-31T16:18:07.936Z,101860.52
2018-07-31T16:20:37.006Z,101868.79
2018-07-31T16:23:06.417Z,101861.48
2018-07-31T16:25:35.614Z,101860.50
2018-07-31T16:28:05.706Z,101868.55
2018-07-31T16:30:34.793Z,101871.02
2018-07-31T16:33:03.836Z,101873.52
2018-07-31T16:35:33.012Z,101877.59
2018-07-31T16:38:02.152Z,101878.58
2018-07-31T16:40:31.356Z,101880.30
2018-07-31T16:43:00.429Z,101883.38
2018-07-31T16:45:29.522Z,101878.94
2018-07-31T16:47:58.625Z,101878.08
2018-07-31T16:50:27.698Z,101888.30
2018-07-31T16:52:56.859Z,101883.98
2018-07-31T16:55:25.999Z,101881.73
2018-07-31T16:57:55.059Z,101877.39
2018-07-31T17:00:24.118Z,101882.72
2018-07-31T17:02:53.218Z,101884.78
2018-07-31T17:05:22.379Z,101879.57
2018-07-31T17:07:51.637Z,101881.73
2018-07-31T17:10:21.052Z,101884.73
2018-07-31T17:12:50.134Z,101891.45
2018-07-31T17:15:19.178Z,101884.89
2018-07-31T17:17:48.226Z,101892.70
2018-07-31T17:20:17.284Z,101896.62
2018-07-31T17:22:46.398Z,101900.42
2018-07-31T17:25:15.610Z,101900.34
2018-07-31T17:27:44.814Z,101895.09
2018-07-31T17:30:13.940Z,101897.21
2018-07-31T17:32:43.090Z,101897.20
2018-07-31T17:35:12.221Z,101893.70
2018-07-31T17:37:41.338Z,101886.05
2018-07-31T17:40:10.719Z,101898.25
2018-07-31T17:42:39.976Z,101896.81
2018-07-31T17:45:09.433Z,101902.14
2018-07-31T17:47:38.696Z,101897.47
2018-07-31T17:50:07.922Z,101910.36
2018-07-31T17:52:38.291Z,101906.66
2018-07-31T17:55:07.492Z,101914.22
2018-07-31T17:57:36.738Z,101909.16
2018-07-31T18:00:06.149Z,101919.73
2018-07-31T18:02:35.363Z,101917.14
2018-07-31T18:05:04.896Z,101918.00
2018-07-31T18:07:34.150Z,101920.43
2018-07-31T18:10:03.399Z,101919.08
2018-07-31T18:12:32.542Z,101921.98
2018-07-31T18:15:01.725Z,101920.20
2018-07-31T18:17:31.084Z,101919.62
2018-07-31T18:20:00.310Z,101923.61
2018-07-31T18:22:29.532Z,101916.91
2018-07-31T18:24:58.842Z,101921.76
2018-07-31T18:27:28.111Z,101919.41
2018-07-31T18:29:57.489Z,101918.06
2018-07-31T18:32:26.746Z,101923.68
2018-07-31T18:34:55.940Z,101925.97
2018-07-31T18:37:25.299Z,101928.09
2018-07-31T18:39:54.425Z,101928.97
2018-07-31T18:42:23.647Z,101927.03
2018-07-31T18:44:52.783Z,101930.02
2018-07-31T18:47:21.880Z,101935.64
2018-07-31T18:49:51.073Z,101931.94
2018-07-31T18:52:20.247Z,101934.44
2018-07-31T18:54:49.698Z,101946.07
2018-07-31T18:57:18.927Z,101944.63
2018-07-31T18:59:48.143Z,101941.41
2018-07-31T19:02:17.338Z,101943.55
2018-07-31T19:04:46.524Z,101942.47
2018-07-31T19:07:21.336Z,101948.58
2018-07-31T19:09:55.966Z,101954.01
2018-07-31T19:12:25.144Z,101949.84
2018-07-31T19:14:54.252Z,101957.41
2018-07-31T19:17:23.415Z,101953.12
2018-07-31T19:19:52.603Z,101959.91
2018-07-31T19:22:21.786Z,101961.56
2018-07-31T19:24:50.970Z,101959.93
2018-07-31T19:27:20.263Z,101962.83
2018-07-31T19:29:49.565Z,101970.39
2018-07-31T19:32:18.767Z,101971.07
2018-07-31T19:34:47.846Z,101969.63
2018-07-31T19:37:16.926Z,101968.76
2018-07-31T19:39:46.010Z,101971.47
2018-07-31T19:42:15.188Z,101977.27
2018-07-31T19:44:44.471Z,101975.14
2018-07-31T19:47:13.536Z,101976.13
2018-07-31T19:49:42.834Z,101979.22
2018-07-31T19:52:11.856Z,101982.33
2018-07-31T19:54:40.976Z,101981.26
2018-07-31T19:57:10.220Z,101979.50
2018-07-31T19:59:39.471Z,101978.05
2018-07-31T20:02:08.536Z,101976.48
2018-07-31T20:04:37.623Z,101982.98
2018-07-31T20:07:06.746Z,101978.14
2018-07-31T20:09:35.949Z,101980.77
2018-07-31T20:12:05.218Z,101972.71
2018-07-31T20:14:34.374Z,101968.92
2018-07-31T20:17:03.534Z,101962.99
2018-07-31T20:19:32.678Z,101961.91
2018-07-31T20:22:01.768Z,101970.95
2018-07-31T20:24:31.189Z,101975.40
2018-07-31T20:27:00.303Z,101979.10
2018-07-31T20:29:29.415Z,101978.42
2018-07-31T20:31:58.514Z,101986.97
2018-07-31T20:34:27.648Z,101988.70
2018-07-31T20:36:57.677Z,101990.91
2018-07-31T20:39:26.806Z,101993.05
2018-07-31T20:41:56.031Z,101994.69
2018-07-31T20:44:33.267Z,101993.89
2018-07-31T20:47:02.480Z,101994.47
2018-07-31T20:49:31.962Z,102003.39
2018-07-31T20:52:01.007Z,102005.73
2018-07-31T20:54:30.061Z,102002.44
2018-07-31T20:56:59.165Z,102001.66
2018-07-31T20:59:28.218Z,102001.17
2018-07-31T21:01:57.292Z,102000.39
2018-07-31T21:04:26.421Z,102002.13
2018-07-31T21:06:55.618Z,102002.62
2018-07-31T21:09:24.702Z,102004.25
2018-07-31T21:11:53.768Z,102003.67
2018-07-31T21:14:22.811Z,102011.73
2018-07-31T21:16:51.881Z,102008.75
2018-07-31T21:19:21.028Z,102020.20
2018-07-31T21:21:50.188Z,102017.78
2018-07-31T21:24:19.260Z,102018.38
2018-07-31T21:26:48.394Z,102021.70
2018-07-31T21:29:17.452Z,102025.00
2018-07-31T21:31:46.548Z,102020.70
2018-07-31T21:34:15.694Z,102023.83
2018-07-31T21:36:45.007Z,102023.63
2018-07-31T21:39:14.116Z,102020.13
2018-07-31T21:41:43.388Z,102031.78
2018-07-31T21:44:12.464Z,102028.70
2018-07-31T21:46:41.690Z,102036.72
2018-07-31T21:49:10.950Z,102037.50
2018-07-31T21:51:39.982Z,102038.20
2018-07-31T21:54:09.090Z,102034.22
2018-07-31T21:56:38.282Z,102031.80
2018-07-31T21:59:07.449Z,102031.63
2018-07-31T22:01:36.566Z,102028.92
2018-07-31T22:04:05.658Z,102025.80
2018-07-31T22:06:34.723Z,102026.98
2018-07-31T22:09:04.546Z,102028.52
2018-07-31T22:11:34.204Z,102030.00
2018-07-31T22:14:03.283Z,102033.58
2018-07-31T22:16:32.323Z,102030.28
2018-07-31T22:19:01.379Z,102029.13
2018-07-31T22:21:30.479Z,102026.30
2018-07-31T22:23:59.607Z,102030.00
2018-07-31T22:26:28.886Z,102032.47
2018-07-31T22:28:58.009Z,102031.72
2018-07-31T22:31:27.058Z,102024.16
2018-07-31T22:33:56.116Z,102025.11
2018-07-31T22:36:25.166Z,102031.23
2018-07-31T22:38:54.360Z,102036.85
2018-07-31T22:41:23.566Z,102036.73
2018-07-31T22:43:52.608Z,102037.03
2018-07-31T22:46:21.645Z,102037.63
2018-07-31T22:48:50.855Z,102039.36
2018-07-31T22:51:20.059Z,102037.63
2018-07-31T22:53:49.148Z,102045.14
2018-07-31T22:56:18.274Z,102043.80
2018-07-31T22:58:47.450Z,102037.34
2018-07-31T23:01:16.502Z,102042.76
2018-07-31T23:03:45.543Z,102035.28
2018-07-31T23:06:14.603Z,102043.05
2018-07-31T23:08:43.660Z,102038.97
2018-07-31T23:11:12.809Z,102035.86
2018-07-31T23:13:41.841Z,102037.41
2018-07-31T23:16:11.003Z,102029.08
2018-07-31T23:18:40.174Z,102033.64
2018-07-31T23:21:09.306Z,102036.75
2018-07-31T23:23:38.545Z,102035.47
2018-07-31T23:26:07.639Z,102040.30
2018-07-31T23:28:36.705Z,102044.16
2018-07-31T23:31:06.017Z,102045.34
2018-07-31T23:33:35.158Z,102041.91
2018-07-31T23:36:04.230Z,102043.45
2018-07-31T23:38:33.325Z,102042.67
2018-07-31T23:41:02.464Z,102042.67
2018-07-31T23:43:31.551Z,102043.16
2018-07-31T23:46:00.711Z,102034.49
2018-07-31T23:48:29.755Z,102028.04
2018-07-31T23:50:59.623Z,102030.67
2018-07-31T23:53:28.674Z,102038.58
2018-07-31T23:55:57.796Z,102032.30
2018-07-31T23:58:26.848Z,102034.02
